Latest Weather Observations for Port Augusta

IDS60801

Issued at 4:01 pm CDT Sunday 26 February 2017 (issued every 30 minutes, with the page automatically refreshed every 10 minutes)

About weather observations | Map of weather stations | Latest weather observations for SA | Other Formats
Station Details ID: 018201 Name: PORT AUGUSTA AERO Lat: -32.51 Lon: 137.72 Height: 13.97 m
Data from the previous 72 hours. | See also: Recent months at Port Augusta
Date/Time
CDT
Temp
°C
App
Temp
°C
Dew
Point
°C
Rel
Hum
%
Delta-T
°C
Wind Press
QNH
hPa
Press
MSL
hPa
Rain since
9am
mm
Dir  Spd
km/h
Gust
km/h
Spd
kts
Gust
kts
26/04:00pm 30.1 25.8 5.4 21 12.9 SE 17 32 9 17 1015.1 1015.0 0.0
26/03:30pm 30.3 25.5 2.5 17 13.9 SE 17 24 9 13 1015.4 1015.3 0.0
26/03:00pm 30.4 25.6 2.6 17 13.9 SE 17 26 9 14 1015.8 1015.7 0.0
26/02:30pm 30.6 27.5 3.6 18 13.8 ENE 9 22 5 12 1016.3 1016.2 0.0
26/02:00pm 29.4 26.1 2.6 18 13.3 E 9 15 5 8 1016.7 1016.6 0.0
26/01:30pm 27.8 24.4 2.1 19 12.5 SSE 9 17 5 9 1017.0 1016.9 0.0
26/01:00pm 28.4 25.2 3.3 20 12.6 WSW 9 13 5 7 1017.3 1017.2 0.0
26/12:30pm 27.1 23.2 3.6 22 11.7 SE 13 17 7 9 1017.8 1017.7 0.0
26/12:00pm 26.3 22.4 3.5 23 11.3 SE 13 22 7 12 1017.9 1017.8 0.0
26/11:30am 25.3 21.9 3.9 25 10.6 SE 11 17 6 9 1018.3 1018.2 0.0
26/11:00am 24.7 20.7 5.0 28 9.9 SE 15 19 8 10 1018.6 1018.5 0.0
26/10:30am 22.9 18.7 5.8 33 8.6 SE 17 28 9 15 1018.8 1018.7 0.0
26/10:00am 21.4 16.8 6.5 38 7.6 SE 20 28 11 15 1019.0 1018.9 0.0
26/09:30am 21.0 16.8 7.3 41 7.0 SE 19 26 10 14 1019.1 1019.0 0.0
26/09:00am 20.4 15.9 6.0 39 7.2 SE 19 28 10 15 1019.2 1019.1 0.0
26/08:30am 19.5 15.3 7.3 45 6.2 SE 19 26 10 14 1019.0 1018.9 0.0
26/08:00am 17.5 15.9 7.8 53 4.9 WSW 6 7 3 4 1018.9 1018.8 0.0
26/07:30am 16.5 13.8 7.4 55 4.5 SSE 11 19 6 10 1018.8 1018.7 0.0
26/07:00am 13.9 12.0 7.7 66 3.1 WNW 7 15 4 8 1018.5 1018.4 0.0
26/06:30am 14.4 12.6 8.1 66 3.1 SSW 7 11 4 6 1018.2 1018.1 0.0
26/06:00am 15.8 13.1 9.0 64 3.5 S 13 17 7 9 1018.0 1017.9 0.0
26/05:30am 15.4 13.0 8.6 64 3.4 S 11 17 6 9 1017.6 1017.5 0.0
26/05:00am 14.5 11.7 8.7 68 2.9 SSW 13 19 7 10 1017.6 1017.5 0.0
26/04:30am 14.5 12.9 8.9 69 2.8 SSW 7 11 4 6 1017.7 1017.6 0.0
26/04:00am 15.6 13.4 9.5 67 3.2 S 11 15 6 8 1017.9 1017.8 0.0
26/03:30am 15.6 14.6 10.4 71 2.7 S 6 9 3 5 1018.1 1018.0 0.0
26/03:00am 15.7 13.3 10.2 70 2.9 SSE 13 17 7 9 1018.2 1018.1 0.0
26/02:30am 16.6 14.0 10.7 68 3.1 SSE 15 19 8 10 1018.5 1018.4 0.0
26/02:00am 17.0 15.9 10.6 66 3.4 S 7 9 4 5 1018.8 1018.7 0.0
26/01:30am 16.8 15.8 10.9 68 3.2 S 7 9 4 5 1019.0 1018.9 0.0
26/01:00am 17.4 16.3 10.8 65 3.5 S 7 9 4 5 1019.3 1019.2 0.0
26/12:30am 18.0 17.2 10.9 63 3.8 NW 6 13 3 7 1019.6 1019.5 0.0
26/12:00am 18.4 15.1 11.0 62 4.0 S 19 26 10 14 1019.8 1019.7 0.0
 
Date/Time
CDT
Temp
°C
App
Temp
°C
Dew
Point
°C
Rel
Hum
%
Delta-T
°C
Wind Press
QNH
hPa
Press
MSL
hPa
Rain since
9am
mm
Dir  Spd
km/h
Gust
km/h
Spd
kts
Gust
kts
25/11:30pm 18.7 14.2 11.5 63 3.9 SSE 26 37 14 20 1019.7 1019.6 0.0
25/11:00pm 18.9 13.3 11.5 62 4.1 SE 32 43 17 23 1019.6 1019.5 0.0
25/10:30pm 19.5 13.3 11.3 59 4.5 SE 35 48 19 26 1019.6 1019.5 0.0
25/10:00pm 20.1 14.2 11.3 57 4.8 SE 33 41 18 22 1019.4 1019.3 0.0
25/09:30pm 20.6 14.8 10.7 53 5.4 SSE 32 41 17 22 1019.4 1019.3 0.0
25/09:00pm 21.3 15.1 11.3 53 5.5 SSE 35 46 19 25 1019.1 1019.0 0.0
25/08:30pm 21.7 15.9 10.8 50 6.0 S 32 44 17 24 1018.8 1018.7 0.0
25/08:00pm 22.5 16.5 10.0 45 6.8 S 32 41 17 22 1018.6 1018.5 0.0
25/07:30pm 23.9 18.2 8.3 37 8.3 S 28 43 15 23 1018.5 1018.4 0.0
25/07:00pm 24.9 18.2 8.0 34 9.0 SSE 33 41 18 22 1018.4 1018.3 0.0
25/06:30pm 25.8 19.0 7.9 32 9.5 SSE 33 43 18 23 1018.3 1018.2 0.0
25/06:00pm 26.6 19.3 7.1 29 10.3 SSE 35 43 19 23 1018.3 1018.2 0.0
25/05:30pm 26.9 19.4 6.3 27 10.7 SSE 35 46 19 25 1018.2 1018.1 0.0
25/05:00pm 27.8 20.6 6.0 25 11.4 SSE 33 44 18 24 1018.4 1018.3 0.0
25/04:30pm 28.1 20.8 5.6 24 11.7 SSE 33 43 18 23 1018.6 1018.5 0.0
25/04:00pm 27.3 20.5 6.7 27 10.9 SSE 32 41 17 22 1019.0 1018.9 0.0
25/03:30pm 27.5 21.6 7.4 28 10.7 SSE 28 44 15 24 1019.2 1019.1 0.0
25/03:00pm 26.8 21.2 7.3 29 10.3 SSE 26 39 14 21 1019.8 1019.7 0.0
25/02:30pm 26.7 21.1 7.2 29 10.3 SSE 26 39 14 21 1020.3 1020.2 0.0
25/02:00pm 26.1 20.9 7.2 30 10.0 SSE 24 37 13 20 1020.9 1020.8 0.0
25/01:30pm 25.9 20.6 7.0 30 9.9 SSE 24 35 13 19 1021.3 1021.2 0.0
25/01:00pm 25.7 20.7 6.3 29 10.1 S 22 33 12 18 1021.6 1021.5 0.0
25/12:30pm 24.8 19.9 7.0 32 9.3 SE 22 33 12 18 1022.0 1021.9 0.0
25/12:00pm 24.1 19.8 7.7 35 8.6 SSE 20 32 11 17 1022.5 1022.4 0.0
25/11:30am 22.5 18.2 7.9 39 7.6 SSE 20 28 11 15 1022.7 1022.6 0.0
25/11:00am 22.1 18.0 7.9 40 7.4 SSE 19 28 10 15 1022.8 1022.7 0.0
25/10:30am 20.9 16.2 7.9 43 6.7 SSE 22 32 12 17 1022.9 1022.8 0.0
25/10:00am 20.2 13.8 8.5 47 6.1 SSE 32 41 17 22 1023.0 1022.9 0.0
25/09:30am 19.2 13.7 10.5 57 4.7 SSE 30 39 16 21 1022.9 1022.8 0.0
25/09:00am 18.4 11.9 10.5 60 4.2 SSE 35 43 19 23 1023.0 1022.9 0.0
25/08:30am 18.0 11.9 9.9 59 4.3 SSE 32 41 17 22 1022.9 1022.8 0.0
25/08:00am 17.1 13.4 10.0 63 3.7 S 20 28 11 15 1022.7 1022.6 0.0
25/07:30am 14.4 12.3 9.8 74 2.4 SW 11 15 6 8 1022.6 1022.5 0.0
25/07:00am 15.5 11.9 9.8 69 3.0 S 19 26 10 14 1022.3 1022.2 0.0
25/06:30am 15.8 11.3 10.1 69 3.0 SSE 24 30 13 16 1022.1 1022.0 0.0
25/06:00am 15.6 11.3 10.6 72 2.6 SSE 24 32 13 17 1021.9 1021.8 0.0
25/05:30am 15.7 11.6 10.2 70 2.9 S 22 28 12 15 1022.1 1022.0 0.0
25/05:00am 15.2 11.5 10.0 71 2.7 S 20 28 11 15 1022.1 1022.0 0.0
25/04:30am 15.3 10.8 9.9 70 2.8 SSE 24 33 13 18 1022.1 1022.0 0.0
25/04:00am 15.5 10.6 9.8 69 3.0 SSE 26 35 14 19 1021.9 1021.8 0.0
25/03:30am 15.7 9.9 9.6 67 3.2 SSE 30 41 16 22 1021.8 1021.7 0.0
25/03:00am 15.9 9.6 9.6 66 3.3 SSE 33 44 18 24 1021.6 1021.5 0.0
25/02:30am 16.0 10.2 9.4 65 3.4 SSE 30 41 16 22 1022.2 1022.1 0.0
25/02:00am 16.2 10.4 9.4 64 3.5 SSE 30 39 16 21 1022.3 1022.2 0.0
25/01:30am 16.5 10.3 9.4 63 3.7 SSE 32 44 17 24 1022.6 1022.5 0.0
25/01:06am 16.8 11.5 9.7 63 3.7 SSE 28 48 15 26 1022.7 1022.6 0.0
25/01:00am 17.0 11.3 9.9 63 3.7 SSE 30 44 16 24 1022.8 1022.7 0.0
25/12:30am 17.2 11.1 9.9 62 3.8 SSE 32 43 17 23 1022.9 1022.8 0.0
25/12:00am 17.5 11.6 10.4 63 3.8 SSE 32 46 17 25 1022.9 1022.8 0.0
 
Date/Time
CDT
Temp
°C
App
Temp
°C
Dew
Point
°C
Rel
Hum
%
Delta-T
°C
Wind Press
QNH
hPa
Press
MSL
hPa
Rain since
9am
mm
Dir  Spd
km/h
Gust
km/h
Spd
kts
Gust
kts
24/11:30pm 17.6 11.8 10.9 65 3.6 S 32 43 17 23 1023.2 1023.1 0.0
24/11:00pm 18.1 12.5 11.4 65 3.7 S 32 43 17 23 1023.2 1023.1 0.0
24/10:35pm 18.5 12.7 11.6 64 3.8 SSE 33 52 18 28 1023.3 1023.2 0.0
24/10:30pm 18.6 12.4 11.4 63 3.9 S 35 52 19 28 1023.3 1023.2 0.0
24/10:00pm 19.3 13.4 11.3 60 4.4 SSE 33 48 18 26 1023.3 1023.2 0.0
24/09:30pm 20.0 14.0 10.7 55 5.0 SSE 33 52 18 28 1022.9 1022.8 0.0
24/09:24pm 20.2 14.2 10.9 55 5.1 SSE 33 52 18 28 1022.8 1022.7 0.0
24/09:00pm 20.6 13.6 11.2 55 5.2 S 39 50 21 27 1022.3 1022.2 0.0
24/08:40pm 20.8 14.2 11.4 55 5.2 S 37 56 20 30 1022.2 1022.1 0.0
24/08:30pm 20.9 13.1 11.3 54 5.3 S 43 57 23 31 1022.1 1022.0 0.0
24/08:00pm 21.4 14.5 10.3 49 6.0 S 37 54 20 29 1021.9 1021.8 0.0
24/07:30pm 22.5 15.7 9.3 43 7.1 S 35 56 19 30 1021.7 1021.6 0.0
24/07:28pm 22.5 15.8 9.6 44 7.0 S 35 56 19 30 1021.6 1021.5 0.0
24/07:00pm 23.1 16.8 9.8 43 7.2 S 33 50 18 27 1021.4 1021.3 0.0
24/06:30pm 24.2 18.0 10.1 41 7.7 S 33 44 18 24 1021.4 1021.3 0.0
24/06:00pm 24.8 18.6 9.5 38 8.3 S 32 43 17 23 1021.4 1021.3 0.0
24/05:30pm 26.0 20.6 9.4 35 9.1 S 28 37 15 20 1021.5 1021.4 0.0
24/05:00pm 25.9 19.5 9.3 35 9.1 SSE 33 43 18 23 1021.4 1021.3 0.0
24/04:30pm 25.8 19.5 8.8 34 9.2 SSE 32 44 17 24 1021.5 1021.4 0.0
24/04:00pm 26.1 19.8 9.0 34 9.3 SSE 32 43 17 23 1021.8 1021.7 0.0
24/03:30pm 26.3 19.9 9.2 34 9.3 SSE 33 44 18 24 1022.0 1021.9 0.0
24/03:00pm 25.9 19.8 9.7 36 8.9 SSE 32 41 17 22 1022.3 1022.2 0.0
24/02:30pm 25.0 18.7 9.7 38 8.4 SSE 33 44 18 24 1022.7 1022.6 0.0
24/02:00pm 25.3 19.7 10.0 38 8.5 SSE 30 39 16 21 1023.0 1022.9 0.0
24/01:30pm 25.2 20.7 9.9 38 8.4 SSE 24 37 13 20 1023.3 1023.2 0.0
24/01:00pm 23.9 19.0 9.9 41 7.7 SSE 26 37 14 20 1023.5 1023.4 0.0
24/12:30pm 23.7 18.4 10.0 42 7.5 SSE 28 37 15 20 1024.0 1023.9 0.0
24/12:00pm 22.8 16.5 9.6 43 7.1 SSE 33 43 18 23 1024.3 1024.2 0.0
24/11:30am 21.7 15.0 9.6 46 6.5 SSE 35 44 19 24 1024.6 1024.5 0.0
24/11:00am 21.0 14.1 10.2 50 5.9 SSE 37 48 20 26 1024.8 1024.7 0.0
24/10:30am 21.0 14.2 10.5 51 5.7 SSE 37 48 20 26 1025.0 1024.9 0.0
24/10:00am 20.1 14.4 11.8 59 4.6 SSE 33 44 18 24 1025.1 1025.0 0.0
24/09:30am 19.6 14.1 12.6 64 3.9 SSE 33 43 18 23 1024.9 1024.8 0.0
24/09:00am 18.9 13.4 11.7 63 3.9 SSE 32 43 17 23 1024.7 1024.6 0.0
24/08:30am 18.1 12.6 11.7 66 3.5 SSE 32 39 17 21 1024.5 1024.4 0.0
24/08:00am 17.4 12.7 11.9 70 3.0 SSE 28 37 15 20 1024.3 1024.2 0.0
24/07:30am 16.7 11.6 12.0 74 2.6 SSE 30 37 16 20 1023.9 1023.8 0.0
24/07:00am 16.3 12.0 11.9 75 2.4 SSE 26 39 14 21 1023.7 1023.6 0.0
24/06:30am 16.4 12.0 11.8 74 2.5 SSE 26 37 14 20 1023.4 1023.3 0.0
24/06:00am 16.3 12.4 12.1 76 2.3 SSE 24 33 13 18 1023.1 1023.0 0.0
24/05:30am 16.8 12.6 12.5 76 2.4 SSE 26 35 14 19 1022.8 1022.7 0.0
24/05:00am 16.8 13.1 12.7 77 2.3 SSE 24 32 13 17 1022.6 1022.5 0.0
24/04:30am 17.1 12.6 12.6 75 2.5 SSE 28 39 15 21 1022.4 1022.3 0.0
24/04:00am 17.2 11.9 12.5 74 2.6 SSE 32 39 17 21 1022.4 1022.3 0.0
24/03:30am 17.1 12.9 12.4 74 2.6 SSE 26 37 14 20 1022.6 1022.5 0.0
24/03:00am 17.5 12.9 12.4 72 2.8 SSE 28 39 15 21 1022.7 1022.6 0.0
24/02:30am 17.6 13.8 12.5 72 2.8 SSE 24 39 13 21 1022.8 1022.7 0.0
24/02:00am 18.0 12.7 12.5 70 3.1 SSE 32 41 17 22 1022.6 1022.5 0.0
24/01:30am 18.2 12.7 12.0 67 3.4 SSE 32 46 17 25 1022.5 1022.4 0.0
24/01:00am 18.6 12.9 11.9 65 3.7 SSE 33 46 18 25 1022.7 1022.6 0.0
24/12:48am 18.6 13.0 11.4 63 3.9 SSE 32 50 17 27 1022.7 1022.6 0.0
24/12:30am 18.7 13.0 11.0 61 4.2 SSE 32 39 17 21 1022.8 1022.7 0.0
24/12:00am 19.0 13.3 11.1 60 4.3 SSE 32 43 17 23 1022.7 1022.6 0.0
 
Date/Time
CDT
Temp
°C
App
Temp
°C
Dew
Point
°C
Rel
Hum
%
Delta-T
°C
Wind Press
QNH
hPa
Press
MSL
hPa
Rain since
9am
mm
Dir  Spd
km/h
Gust
km/h
Spd
kts
Gust
kts
23/11:30pm 19.3 15.2 12.6 65 3.7 S 26 39 14 21 1022.6 1022.5 0.0
23/11:00pm 19.7 15.5 13.4 67 3.6 S 28 37 15 20 1022.4 1022.3 0.0
23/10:30pm 19.7 14.5 12.7 64 3.9 S 32 44 17 24 1022.2 1022.1 0.0
23/10:00pm 19.7 15.2 12.7 64 3.9 S 28 39 15 21 1021.8 1021.7 0.0
23/09:30pm 20.0 15.1 12.7 63 4.1 SSE 30 37 16 20 1021.5 1021.4 0.0
23/09:00pm 20.4 14.4 12.1 59 4.6 SSE 35 44 19 24 1021.0 1020.9 0.0
23/08:30pm 21.0 15.1 11.1 53 5.4 SSE 33 43 18 23 1020.7 1020.6 0.0
23/08:00pm 21.5 15.0 11.8 54 5.4 SSE 37 46 20 25 1020.3 1020.2 0.0
23/07:30pm 22.3 15.9 12.0 52 5.8 SSE 37 46 20 25 1019.9 1019.8 0.0
23/07:00pm 23.7 17.5 11.4 46 6.9 SE 35 44 19 24 1019.6 1019.5 0.0
23/06:30pm 24.3 19.3 13.5 51 6.3 SE 32 43 17 23 1019.4 1019.3 0.0
23/06:00pm 25.8 20.1 11.2 40 8.2 SE 32 41 17 22 1019.0 1018.9 0.0
23/05:30pm 26.4 20.9 11.7 40 8.4 SE 32 39 17 21 1018.9 1018.8 0.0
23/05:00pm 27.2 21.4 10.8 36 9.3 SE 32 41 17 22 1018.8 1018.7 0.0
23/04:30pm 26.8 21.3 10.5 36 9.1 SE 30 39 16 21 1018.8 1018.7 0.0

Other Formats:

Comma delimited format used in spreadsheet applications
http://www.bom.gov.au/fwo/IDS60801/IDS60801.95666.axf

JavaScript Object Notation format (JSON) in row-major order
http://www.bom.gov.au/fwo/IDS60801/IDS60801.95666.json